createdAt,value
2024-05-09T00:00:44.067Z,100747.75
2024-05-09T00:03:47.325Z,100748.75
2024-05-09T00:06:50.411Z,100749.41
2024-05-09T00:09:53.206Z,100748.94
2024-05-09T00:12:55.991Z,100742.38
2024-05-09T00:15:59.647Z,100751.56
2024-05-09T00:19:02.667Z,100751.03
2024-05-09T00:22:05.828Z,100761.13
2024-05-09T00:25:08.985Z,100755.50
2024-05-09T00:28:12.904Z,100759.75
2024-05-09T00:31:16.569Z,100751.31
2024-05-09T00:34:19.591Z,100744.78
2024-05-09T00:37:22.737Z,100759.69
2024-05-09T00:40:35.499Z,100752.59
2024-05-09T00:43:42.417Z,100750.00
2024-05-09T00:46:45.425Z,100768.34
2024-05-09T00:49:48.773Z,100746.72
2024-05-09T00:52:54.378Z,100753.56
2024-05-09T00:55:58.508Z,100747.50
2024-05-09T00:59:01.503Z,100744.72
2024-05-09T01:02:05.036Z,100747.66
2024-05-09T01:05:08.161Z,100747.78
2024-05-09T01:08:12.175Z,100752.50
2024-05-09T01:11:17.953Z,100752.00
2024-05-09T01:14:21.041Z,100741.50
2024-05-09T01:17:25.075Z,100747.06
2024-05-09T01:20:37.482Z,100742.06
2024-05-09T01:23:45.032Z,100739.94
2024-05-09T01:26:48.483Z,100740.91
2024-05-09T01:29:51.847Z,100740.00
2024-05-09T01:32:55.110Z,100730.59
2024-05-09T01:35:58.316Z,100740.47
2024-05-09T01:39:01.373Z,100734.81
2024-05-09T01:42:04.769Z,100729.75
2024-05-09T01:45:09.359Z,100747.22
2024-05-09T01:48:12.600Z,100743.19
2024-05-09T01:51:15.911Z,100738.44
2024-05-09T01:54:19.220Z,100736.91
2024-05-09T01:57:22.288Z,100753.84
2024-05-09T02:00:36.950Z,100746.59
2024-05-09T02:03:46.843Z,100737.97
2024-05-09T02:06:49.814Z,100743.28
2024-05-09T02:09:53.416Z,100738.56
2024-05-09T02:12:56.273Z,100739.94
2024-05-09T02:15:59.060Z,100734.28
2024-05-09T02:19:02.029Z,100731.75
2024-05-09T02:22:04.983Z,100738.22
2024-05-09T02:25:07.861Z,100733.53
2024-05-09T02:28:10.813Z,100734.22
2024-05-09T02:31:13.807Z,100730.63
2024-05-09T02:34:16.545Z,100729.06
2024-05-09T02:37:19.527Z,100726.22
2024-05-09T02:40:29.152Z,100724.34
2024-05-09T02:43:39.084Z,100728.97
2024-05-09T02:46:41.907Z,100738.00
2024-05-09T02:49:44.856Z,100738.31
2024-05-09T02:52:47.708Z,100747.31
2024-05-09T02:55:51.173Z,100740.81
2024-05-09T02:58:54.131Z,100740.97
2024-05-09T03:01:57.080Z,100749.00
2024-05-09T03:05:00.816Z,100739.63
2024-05-09T03:08:04.346Z,100730.19
2024-05-09T03:11:07.484Z,100726.97
2024-05-09T03:14:10.419Z,100733.13
2024-05-09T03:17:13.418Z,100733.22
2024-05-09T03:20:23.359Z,100737.81
2024-05-09T03:23:27.366Z,100736.00
2024-05-09T03:26:30.420Z,100749.69
2024-05-09T03:29:33.591Z,100743.94
2024-05-09T03:32:36.722Z,100741.19
2024-05-09T03:35:39.647Z,100732.78
2024-05-09T03:38:42.582Z,100742.91
2024-05-09T03:41:45.623Z,100741.22
2024-05-09T03:44:48.619Z,100742.69
2024-05-09T03:47:52.482Z,100744.88
2024-05-09T03:50:55.830Z,100740.97
2024-05-09T03:53:59.005Z,100743.97
2024-05-09T03:57:02.347Z,100755.84
2024-05-09T04:00:11.896Z,100751.63
2024-05-09T04:03:20.898Z,100747.56
2024-05-09T04:06:25.092Z,100744.84
2024-05-09T04:09:27.946Z,100747.50
2024-05-09T04:12:30.943Z,100749.41
2024-05-09T04:15:34.003Z,100747.22
2024-05-09T04:18:37.376Z,100752.81
2024-05-09T04:21:40.326Z,100744.66
2024-05-09T04:24:43.438Z,100758.56
2024-05-09T04:27:46.343Z,100749.75
2024-05-09T04:30:53.069Z,100762.94
2024-05-09T04:33:56.086Z,100765.09
2024-05-09T04:36:59.116Z,100762.34
2024-05-09T04:40:02.279Z,100763.28
2024-05-09T04:43:06.507Z,100767.72
2024-05-09T04:46:09.942Z,100768.28
2024-05-09T04:49:13.161Z,100768.50
2024-05-09T04:52:16.138Z,100770.81
2024-05-09T04:55:18.972Z,100769.47
2024-05-09T04:58:22.374Z,100773.25
2024-05-09T05:01:25.633Z,100779.94
2024-05-09T05:04:29.933Z,100789.09
2024-05-09T05:07:32.774Z,100789.47
2024-05-09T05:10:36.895Z,100788.75
2024-05-09T05:13:41.700Z,100781.63
2024-05-09T05:16:44.951Z,100795.19
2024-05-09T05:19:49.915Z,100788.06
2024-05-09T05:22:53.284Z,100793.53
2024-05-09T05:25:57.509Z,100791.84
2024-05-09T05:29:01.678Z,100774.38
2024-05-09T05:32:05.603Z,100754.00
2024-05-09T05:35:09.857Z,100795.19
2024-05-09T05:38:13.499Z,100757.69
2024-05-09T05:41:16.819Z,100774.50
2024-05-09T05:44:24.226Z,100779.34
2024-05-09T05:47:30.713Z,100792.28
2024-05-09T05:50:38.476Z,100800.81
2024-05-09T05:53:44.533Z,100783.88
2024-05-09T05:56:47.698Z,100774.19
2024-05-09T05:59:53.324Z,100789.38
2024-05-09T06:02:56.723Z,100791.63
2024-05-09T06:06:03.014Z,100772.91
2024-05-09T06:09:06.483Z,100769.03
2024-05-09T06:12:09.706Z,100798.47
2024-05-09T06:15:13.815Z,100787.59
2024-05-09T06:18:17.147Z,100799.50
2024-05-09T06:21:21.221Z,100803.75
2024-05-09T06:24:24.305Z,100815.22
2024-05-09T06:27:27.856Z,100802.78
2024-05-09T06:30:42.461Z,100814.59
2024-05-09T06:33:46.556Z,100806.00
2024-05-09T06:36:49.794Z,100815.59
2024-05-09T06:39:52.994Z,100826.81
2024-05-09T06:42:57.840Z,100827.47
2024-05-09T06:46:03.036Z,100822.59
2024-05-09T06:49:08.667Z,100826.38
2024-05-09T06:52:14.787Z,100821.97
2024-05-09T06:55:26.963Z,100836.38
2024-05-09T06:58:55.558Z,100790.94
2024-05-09T07:02:03.982Z,100800.69
2024-05-09T07:05:07.301Z,100841.13
2024-05-09T07:08:14.654Z,100847.31
2024-05-09T07:11:19.032Z,100812.38
2024-05-09T07:14:25.609Z,100793.53
2024-05-09T07:17:31.386Z,100838.88
2024-05-09T07:20:35.394Z,100807.00
2024-05-09T07:23:39.031Z,100839.28
2024-05-09T07:26:42.483Z,100817.63
2024-05-09T07:29:45.988Z,100829.16
2024-05-09T07:32:50.770Z,100846.34
2024-05-09T07:36:03.166Z,100844.06
2024-05-09T07:39:10.335Z,100808.59
2024-05-09T07:42:55.765Z,100848.09
2024-05-09T07:46:51.821Z,100848.84
2024-05-09T07:53:33.832Z,100849.34
2024-05-09T07:56:13.214Z,100810.56
2024-05-09T07:59:17.583Z,100845.75
2024-05-09T08:02:21.079Z,100849.69
2024-05-09T08:05:28.872Z,100844.69
2024-05-09T08:08:35.468Z,100853.16
2024-05-09T08:11:41.752Z,100814.03
2024-05-09T08:14:45.459Z,100859.66
2024-05-09T08:17:50.530Z,100858.41
2024-05-09T08:20:54.150Z,100829.47
2024-05-09T08:24:01.502Z,100807.25
2024-05-09T08:27:05.954Z,100808.72
2024-05-09T08:30:18.415Z,100818.47
2024-05-09T08:33:37.626Z,100861.09
2024-05-09T08:36:42.829Z,100843.59
2024-05-09T08:39:47.895Z,100866.75
2024-05-09T08:42:56.519Z,100831.13
2024-05-09T08:46:02.502Z,100867.16
2024-05-09T08:49:07.034Z,100871.47
2024-05-09T08:52:14.226Z,100863.75
2024-05-09T08:55:17.535Z,100880.59
2024-05-09T08:58:24.315Z,100825.97
2024-05-09T09:01:32.070Z,100857.50
2024-05-09T09:04:39.287Z,100842.53
2024-05-09T09:07:48.650Z,100837.59
2024-05-09T09:10:54.441Z,100853.69
2024-05-09T09:13:57.808Z,100851.03
2024-05-09T09:17:00.943Z,100857.91
2024-05-09T09:20:04.479Z,100853.19
2024-05-09T09:23:08.909Z,100846.97
2024-05-09T09:26:16.186Z,100847.38
2024-05-09T09:29:21.008Z,100857.09
2024-05-09T09:32:29.164Z,100862.88
2024-05-09T09:35:32.318Z,100854.28
2024-05-09T09:38:38.069Z,100856.94
2024-05-09T09:41:46.871Z,100851.72
2024-05-09T09:45:01.894Z,100856.31
2024-05-09T09:48:14.978Z,100853.00
2024-05-09T09:51:18.969Z,100855.63
2024-05-09T09:54:29.835Z,100847.22
2024-05-09T09:57:43.976Z,100857.41
2024-05-09T10:00:47.386Z,100852.78
2024-05-09T10:03:50.707Z,100860.25
2024-05-09T10:06:59.598Z,100847.97
2024-05-09T10:10:03.337Z,100851.28
2024-05-09T10:13:08.084Z,100855.09
2024-05-09T10:16:22.373Z,100862.91
2024-05-09T10:19:26.844Z,100858.28
2024-05-09T10:22:31.144Z,100858.06
2024-05-09T10:25:35.547Z,100853.56
2024-05-09T10:28:43.387Z,100853.88
2024-05-09T10:31:48.374Z,100847.06
2024-05-09T10:35:00.927Z,100848.78
2024-05-09T10:38:07.270Z,100852.31
2024-05-09T10:41:11.360Z,100839.03
2024-05-09T10:44:16.076Z,100833.97
2024-05-09T10:47:23.138Z,100830.84
2024-05-09T10:50:29.229Z,100835.63
2024-05-09T10:53:44.824Z,100820.63
2024-05-09T10:56:56.821Z,100832.78
2024-05-09T11:00:00.530Z,100819.59
2024-05-09T11:03:04.448Z,100815.59
2024-05-09T11:06:09.875Z,100823.69
2024-05-09T11:09:13.555Z,100825.84
2024-05-09T11:12:16.648Z,100820.72
2024-05-09T11:15:19.456Z,100808.69
2024-05-09T11:18:28.165Z,100799.69
2024-05-09T11:21:32.879Z,100801.69
2024-05-09T11:24:36.080Z,100805.66
2024-05-09T11:27:42.605Z,100803.31
2024-05-09T11:30:46.119Z,100784.69
2024-05-09T11:33:49.717Z,100782.50
2024-05-09T11:36:53.040Z,100784.81
2024-05-09T11:39:56.382Z,100784.97
2024-05-09T11:42:59.676Z,100783.13
2024-05-09T11:46:03.941Z,100766.41
2024-05-09T11:49:16.499Z,100767.41
2024-05-09T11:52:19.724Z,100777.50
2024-05-09T11:55:27.387Z,100789.09
2024-05-09T11:58:34.869Z,100783.44
2024-05-09T12:01:38.234Z,100797.72
2024-05-09T12:04:41.570Z,100783.13
2024-05-09T12:07:44.576Z,100785.03
2024-05-09T12:10:47.839Z,100773.28
2024-05-09T12:13:50.836Z,100772.56
2024-05-09T12:16:54.105Z,100776.22
2024-05-09T12:19:57.301Z,100768.63
2024-05-09T12:23:02.308Z,100771.50
2024-05-09T12:26:05.457Z,100772.69
2024-05-09T12:29:08.707Z,100765.38
2024-05-09T12:32:11.845Z,100763.69
2024-05-09T12:35:15.058Z,100759.72
2024-05-09T12:38:18.620Z,100761.75
2024-05-09T12:41:21.617Z,100752.31
2024-05-09T12:44:24.404Z,100738.13
2024-05-09T12:47:27.994Z,100730.66
2024-05-09T12:50:33.669Z,100747.75
2024-05-09T12:53:37.588Z,100734.78
2024-05-09T12:56:41.825Z,100735.50
2024-05-09T12:59:44.847Z,100739.56
2024-05-09T13:02:47.948Z,100738.81
2024-05-09T13:05:52.111Z,100738.22
2024-05-09T13:08:55.184Z,100744.50
2024-05-09T13:11:58.340Z,100736.56
2024-05-09T13:15:01.292Z,100729.59
2024-05-09T13:18:05.316Z,100739.63
2024-05-09T13:21:08.940Z,100738.38
2024-05-09T13:24:11.790Z,100725.94
2024-05-09T13:27:14.793Z,100716.72
2024-05-09T13:30:25.934Z,100734.31
2024-05-09T13:33:33.671Z,100728.50
2024-05-09T13:36:36.799Z,100719.28
2024-05-09T13:39:39.701Z,100715.75
2024-05-09T13:42:42.558Z,100712.84
2024-05-09T13:45:45.962Z,100721.28
2024-05-09T13:48:49.383Z,100718.91
2024-05-09T13:51:52.553Z,100707.09
2024-05-09T13:54:55.742Z,100703.97
2024-05-09T13:57:59.287Z,100712.13
2024-05-09T14:01:02.690Z,100708.81
2024-05-09T14:04:06.340Z,100700.81
2024-05-09T14:07:10.792Z,100685.50
2024-05-09T14:10:22.519Z,100682.38
2024-05-09T14:13:31.957Z,100711.22
2024-05-09T14:16:40.122Z,100692.16
2024-05-09T14:19:43.396Z,100710.06
2024-05-09T14:22:46.540Z,100694.59
2024-05-09T14:25:53.172Z,100701.06
2024-05-09T14:28:56.456Z,100706.97
2024-05-09T14:32:00.043Z,100699.50
2024-05-09T14:35:04.167Z,100700.59
2024-05-09T14:38:10.284Z,100687.38
2024-05-09T14:41:13.903Z,100690.97
2024-05-09T14:44:16.979Z,100697.00
2024-05-09T14:47:20.181Z,100675.63
2024-05-09T14:50:32.317Z,100683.03
2024-05-09T14:53:39.899Z,100690.47
2024-05-09T14:56:44.031Z,100697.78
2024-05-09T14:59:46.991Z,100693.19
2024-05-09T15:02:50.034Z,100697.38
2024-05-09T15:05:53.335Z,100679.13
2024-05-09T15:08:57.642Z,100682.44
2024-05-09T15:12:00.637Z,100685.38
2024-05-09T15:15:04.318Z,100689.47
2024-05-09T15:18:07.724Z,100685.63
2024-05-09T15:21:11.395Z,100683.03
2024-05-09T15:24:15.102Z,100663.28
2024-05-09T15:27:20.104Z,100685.69
2024-05-09T15:33:31.219Z,100681.84
2024-05-09T15:36:34.690Z,100681.03
2024-05-09T15:39:38.072Z,100694.16
2024-05-09T15:42:43.037Z,100673.25
2024-05-09T15:45:46.462Z,100685.09
2024-05-09T15:48:49.813Z,100682.28
2024-05-09T15:51:52.935Z,100674.59
2024-05-09T15:54:56.077Z,100677.75
2024-05-09T15:58:04.145Z,100690.28
2024-05-09T16:01:07.823Z,100676.91
2024-05-09T16:04:11.739Z,100682.50
2024-05-09T16:07:15.666Z,100678.50
2024-05-09T16:10:23.229Z,100685.69
2024-05-09T16:13:29.299Z,100678.72
2024-05-09T16:16:32.660Z,100682.75
2024-05-09T16:19:35.707Z,100684.91
2024-05-09T16:22:38.589Z,100686.78
2024-05-09T16:25:46.316Z,100688.59
2024-05-09T16:28:49.441Z,100689.47
2024-05-09T16:31:52.529Z,100687.56
2024-05-09T16:34:55.571Z,100699.66
2024-05-09T16:37:58.721Z,100690.72
2024-05-09T16:41:01.747Z,100684.88
2024-05-09T16:44:04.780Z,100685.69
2024-05-09T16:47:08.096Z,100693.34
2024-05-09T16:50:12.925Z,100690.72
2024-05-09T16:56:24.038Z,100683.50
2024-05-09T16:59:27.231Z,100693.22
2024-05-09T17:02:31.040Z,100693.78
2024-05-09T17:05:34.466Z,100690.28
2024-05-09T17:08:38.094Z,100686.66
2024-05-09T17:11:41.145Z,100685.34
2024-05-09T17:14:44.159Z,100692.44
2024-05-09T17:17:47.929Z,100691.25
2024-05-09T17:20:52.612Z,100702.63
2024-05-09T17:23:56.043Z,100703.19
2024-05-09T17:27:00.353Z,100693.00
2024-05-09T17:30:06.352Z,100701.03
2024-05-09T17:33:12.150Z,100696.25
2024-05-09T17:36:15.990Z,100700.75
2024-05-09T17:39:18.888Z,100690.63
2024-05-09T17:42:21.758Z,100706.88
2024-05-09T17:45:24.753Z,100706.03
2024-05-09T17:48:27.807Z,100705.69
2024-05-09T17:51:34.266Z,100707.38
2024-05-09T17:54:37.323Z,100706.28
2024-05-09T17:57:40.445Z,100694.84
2024-05-09T18:00:43.709Z,100697.31
2024-05-09T18:03:48.657Z,100716.63
2024-05-09T18:06:51.783Z,100707.34
2024-05-09T18:09:54.800Z,100715.53
2024-05-09T18:12:57.943Z,100707.13
2024-05-09T18:16:01.681Z,100715.56
2024-05-09T18:19:04.983Z,100714.78
2024-05-09T18:22:08.666Z,100720.03
2024-05-09T18:25:11.763Z,100725.59
2024-05-09T18:28:16.814Z,100726.06
2024-05-09T18:31:21.173Z,100733.19
2024-05-09T18:34:24.372Z,100738.63
2024-05-09T18:37:27.607Z,100743.00
2024-05-09T18:40:34.933Z,100750.03
2024-05-09T18:43:45.048Z,100744.91
2024-05-09T18:46:51.428Z,100746.81
2024-05-09T18:49:54.325Z,100758.72
2024-05-09T18:52:57.446Z,100758.03
2024-05-09T18:56:00.922Z,100765.25
2024-05-09T18:59:04.390Z,100764.88
2024-05-09T19:02:07.635Z,100767.06
2024-05-09T19:05:11.283Z,100772.78
2024-05-09T19:08:15.941Z,100767.94
2024-05-09T19:11:19.044Z,100768.34
2024-05-09T19:14:22.529Z,100777.22
2024-05-09T19:17:28.456Z,100773.78
2024-05-09T19:20:35.236Z,100786.84
2024-05-09T19:23:46.839Z,100767.97
2024-05-09T19:26:56.171Z,100785.13
2024-05-09T19:29:59.207Z,100784.19
2024-05-09T19:33:02.580Z,100798.75
2024-05-09T19:36:06.990Z,100792.53
2024-05-09T19:39:10.078Z,100792.13
2024-05-09T19:42:13.441Z,100796.38
2024-05-09T19:45:16.750Z,100808.03
2024-05-09T19:48:21.510Z,100800.13
2024-05-09T19:51:24.737Z,100812.66
2024-05-09T19:54:28.116Z,100803.91
2024-05-09T19:57:31.323Z,100804.34
2024-05-09T20:00:36.998Z,100806.56
2024-05-09T20:03:42.296Z,100805.72
2024-05-09T20:06:46.493Z,100806.28
2024-05-09T20:09:50.586Z,100807.69
2024-05-09T20:12:54.092Z,100801.56
2024-05-09T20:15:57.548Z,100819.84
2024-05-09T20:19:01.679Z,100821.75
2024-05-09T20:22:05.679Z,100822.31
2024-05-09T20:25:09.422Z,100819.31
2024-05-09T20:28:13.499Z,100825.38
2024-05-09T20:31:21.263Z,100826.78
2024-05-09T20:34:24.507Z,100821.78
2024-05-09T20:37:27.904Z,100841.22
2024-05-09T20:40:35.084Z,100830.41
2024-05-09T20:43:41.252Z,100842.84
2024-05-09T20:46:45.278Z,100847.84
2024-05-09T20:49:48.370Z,100846.19
2024-05-09T20:52:51.282Z,100844.81
2024-05-09T20:55:54.686Z,100845.91
2024-05-09T20:58:58.179Z,100829.41
2024-05-09T21:02:01.128Z,100839.09
2024-05-09T21:05:04.877Z,100832.75
2024-05-09T21:08:08.212Z,100822.69
2024-05-09T21:11:11.623Z,100838.41
2024-05-09T21:14:14.466Z,100820.38
2024-05-09T21:17:17.426Z,100820.69
2024-05-09T21:20:24.228Z,100830.22
2024-05-09T21:23:32.993Z,100822.75
2024-05-09T21:26:37.432Z,100823.47
2024-05-09T21:29:41.236Z,100833.44
2024-05-09T21:32:44.172Z,100835.75
2024-05-09T21:35:47.076Z,100833.53
2024-05-09T21:38:50.034Z,100832.69
2024-05-09T21:41:53.618Z,100839.91
2024-05-09T21:44:56.492Z,100840.78
2024-05-09T21:47:59.687Z,100849.59
2024-05-09T21:51:02.724Z,100851.97
2024-05-09T21:54:05.724Z,100860.59
2024-05-09T21:57:10.224Z,100854.22
2024-05-09T22:00:28.256Z,100863.34
2024-05-09T22:03:38.294Z,100866.06
2024-05-09T22:06:41.396Z,100864.16
2024-05-09T22:09:45.584Z,100873.56
2024-05-09T22:12:48.740Z,100891.38
2024-05-09T22:15:51.798Z,100890.66
2024-05-09T22:18:54.855Z,100898.22
2024-05-09T22:21:58.040Z,100897.66
2024-05-09T22:25:01.089Z,100894.88
2024-05-09T22:28:05.148Z,100909.59
2024-05-09T22:31:09.089Z,100905.25
2024-05-09T22:34:12.164Z,100911.88
2024-05-09T22:37:15.247Z,100918.44
2024-05-09T22:40:28.248Z,100912.81
2024-05-09T22:43:40.232Z,100916.97
2024-05-09T22:46:43.468Z,100914.88
2024-05-09T22:49:46.410Z,100914.53
2024-05-09T22:52:49.286Z,100922.59
2024-05-09T22:55:52.274Z,100924.44
2024-05-09T22:58:56.175Z,100920.09
2024-05-09T23:01:59.342Z,100916.97
2024-05-09T23:05:02.865Z,100921.31
2024-05-09T23:08:05.983Z,100924.28
2024-05-09T23:11:09.487Z,100916.31
2024-05-09T23:14:12.566Z,100927.69
2024-05-09T23:17:15.481Z,100920.66
2024-05-09T23:20:29.614Z,100915.34
2024-05-09T23:23:39.661Z,100920.47
2024-05-09T23:26:43.611Z,100921.41
2024-05-09T23:29:47.516Z,100924.59
2024-05-09T23:32:50.504Z,100927.06
2024-05-09T23:35:53.598Z,100925.09
2024-05-09T23:38:56.538Z,100928.63
2024-05-09T23:41:59.474Z,100925.63
2024-05-09T23:45:02.490Z,100921.66
2024-05-09T23:48:06.467Z,100920.28
2024-05-09T23:51:09.575Z,100921.91
2024-05-09T23:54:12.483Z,100907.16
2024-05-09T23:57:15.393Z,100912.88
